createdAt,value
2024-05-09T00:01:30.352Z,4.95
2024-05-09T00:04:00.581Z,7.30
2024-05-09T00:06:31.495Z,5.15
2024-05-09T00:09:04.835Z,5.40
2024-05-09T00:11:35.818Z,8.25
2024-05-09T00:14:05.971Z,6.60
2024-05-09T00:16:36.822Z,7.45
2024-05-09T00:19:07.356Z,6.17
2024-05-09T00:21:39.170Z,6.45
2024-05-09T00:24:12.132Z,5.03
2024-05-09T00:26:42.722Z,5.80
2024-05-09T00:29:12.922Z,8.38
2024-05-09T00:31:43.684Z,6.70
2024-05-09T00:34:13.998Z,8.27
2024-05-09T00:36:44.771Z,6.45
2024-05-09T00:39:17.482Z,6.38
2024-05-09T00:41:48.372Z,5.40
2024-05-09T00:44:18.929Z,7.80
2024-05-09T00:46:54.718Z,7.38
2024-05-09T00:49:25.213Z,7.70
2024-05-09T00:51:57.558Z,9.27
2024-05-09T00:54:30.567Z,6.75
2024-05-09T00:57:01.359Z,8.48
2024-05-09T00:59:33.018Z,8.77
2024-05-09T01:02:04.124Z,7.65
2024-05-09T01:04:34.531Z,8.18
2024-05-09T01:07:05.365Z,8.70
2024-05-09T01:09:38.395Z,7.13
2024-05-09T01:12:09.732Z,6.97
2024-05-09T01:14:40.525Z,5.65
2024-05-09T01:17:11.796Z,5.53
2024-05-09T01:19:42.301Z,6.85
2024-05-09T01:22:12.910Z,7.22
2024-05-09T01:24:45.793Z,6.60
2024-05-09T01:27:16.534Z,5.75
2024-05-09T01:29:46.780Z,6.75
2024-05-09T01:32:17.391Z,11.85
2024-05-09T01:34:47.755Z,5.45
2024-05-09T01:37:18.348Z,6.68
2024-05-09T01:39:51.137Z,9.93
2024-05-09T01:42:21.693Z,8.10
2024-05-09T01:44:51.754Z,6.00
2024-05-09T01:47:22.730Z,7.40
2024-05-09T01:49:53.342Z,6.00
2024-05-09T01:52:23.983Z,5.63
2024-05-09T01:54:56.832Z,5.47
2024-05-09T01:57:27.457Z,11.88
2024-05-09T01:59:57.886Z,6.53
2024-05-09T02:02:29.018Z,5.97
2024-05-09T02:04:59.581Z,7.05
2024-05-09T02:07:30.127Z,7.10
2024-05-09T02:10:06.563Z,6.57
2024-05-09T02:12:40.168Z,6.22
2024-05-09T02:15:10.670Z,5.55
2024-05-09T02:17:41.683Z,5.97
2024-05-09T02:20:18.861Z,6.50
2024-05-09T02:22:58.255Z,7.65
2024-05-09T02:25:31.015Z,8.55
2024-05-09T02:28:01.782Z,7.20
2024-05-09T02:30:40.298Z,8.23
2024-05-09T02:33:12.389Z,6.03
2024-05-09T02:35:45.064Z,6.70
2024-05-09T02:38:13.643Z,6.88
2024-05-09T02:40:46.919Z,5.65
2024-05-09T02:43:14.918Z,8.25
2024-05-09T02:45:45.313Z,6.22
2024-05-09T02:48:14.255Z,6.70
2024-05-09T02:50:45.287Z,8.10
2024-05-09T02:53:14.421Z,6.63
2024-05-09T02:55:47.652Z,11.73
2024-05-09T02:58:15.667Z,20.88
2024-05-09T03:00:45.975Z,7.85
2024-05-09T03:03:15.627Z,8.13
2024-05-09T03:05:47.156Z,6.85
2024-05-09T03:08:15.471Z,8.15
2024-05-09T03:10:48.625Z,10.80
2024-05-09T03:13:19.650Z,5.78
2024-05-09T03:15:49.751Z,6.93
2024-05-09T03:18:17.969Z,7.55
2024-05-09T03:20:48.249Z,7.93
2024-05-09T03:23:16.653Z,7.05
2024-05-09T03:25:49.833Z,7.72
2024-05-09T03:28:17.801Z,9.45
2024-05-09T03:30:47.969Z,8.73
2024-05-09T03:33:20.288Z,6.85
2024-05-09T03:35:49.530Z,10.10
2024-05-09T03:38:20.411Z,8.20
2024-05-09T03:40:53.557Z,8.37
2024-05-09T03:43:24.320Z,7.43
2024-05-09T03:45:54.803Z,9.93
2024-05-09T03:48:22.872Z,7.85
2024-05-09T03:50:53.649Z,8.05
2024-05-09T03:53:23.069Z,10.02
2024-05-09T03:55:57.304Z,8.50
2024-05-09T03:58:25.377Z,9.73
2024-05-09T04:00:55.552Z,8.50
2024-05-09T04:03:23.982Z,6.70
2024-05-09T04:05:54.272Z,7.82
2024-05-09T04:08:22.469Z,8.32
2024-05-09T04:10:55.771Z,10.18
2024-05-09T04:13:23.664Z,10.70
2024-05-09T04:15:53.815Z,8.50
2024-05-09T04:18:21.817Z,8.48
2024-05-09T04:20:52.145Z,7.53
2024-05-09T04:23:20.279Z,9.23
2024-05-09T04:25:50.701Z,8.65
2024-05-09T04:28:21.428Z,7.82
2024-05-09T04:30:51.768Z,9.05
2024-05-09T04:33:20.916Z,9.27
2024-05-09T04:35:51.655Z,6.80
2024-05-09T04:38:19.596Z,9.90
2024-05-09T04:40:50.075Z,11.77
2024-05-09T04:43:21.517Z,11.70
2024-05-09T04:45:51.842Z,13.23
2024-05-09T04:48:19.960Z,12.73
2024-05-09T04:50:50.489Z,10.80
2024-05-09T04:53:18.599Z,10.77
2024-05-09T04:55:48.999Z,10.93
2024-05-09T04:58:17.421Z,11.20
2024-05-09T05:00:50.651Z,10.30
2024-05-09T05:03:20.003Z,8.95
2024-05-09T05:05:50.949Z,11.80
2024-05-09T05:08:19.632Z,9.52
2024-05-09T05:10:50.912Z,11.57
2024-05-09T05:13:24.028Z,12.52
2024-05-09T05:15:58.756Z,13.15
2024-05-09T05:18:27.850Z,16.60
2024-05-09T05:20:59.141Z,14.98
2024-05-09T05:23:27.232Z,14.48
2024-05-09T05:25:57.754Z,12.95
2024-05-09T05:28:25.785Z,12.73
2024-05-09T05:30:58.748Z,15.18
2024-05-09T05:33:27.037Z,16.25
2024-05-09T05:35:57.607Z,13.50
2024-05-09T05:38:28.810Z,10.48
2024-05-09T05:43:27.165Z,15.93
2024-05-09T05:45:57.609Z,11.00
2024-05-09T05:48:28.870Z,11.38
2024-05-09T05:50:56.706Z,19.25
2024-05-09T05:53:27.515Z,14.27
2024-05-09T05:55:55.150Z,15.00
2024-05-09T05:58:25.900Z,12.70
2024-05-09T06:00:53.960Z,13.50
2024-05-09T06:03:28.881Z,14.38
2024-05-09T06:05:57.012Z,13.00
2024-05-09T06:08:30.281Z,12.13
2024-05-09T06:10:59.349Z,10.73
2024-05-09T06:13:30.317Z,17.05
2024-05-09T06:16:00.201Z,11.00
2024-05-09T06:18:33.693Z,13.75
2024-05-09T06:21:01.739Z,13.02
2024-05-09T06:23:32.563Z,10.25
2024-05-09T06:26:00.300Z,14.82
2024-05-09T06:28:31.158Z,9.80
2024-05-09T06:33:29.246Z,9.45
2024-05-09T06:38:31.113Z,9.98
2024-05-09T06:40:59.042Z,11.65
2024-05-09T06:43:30.631Z,9.20
2024-05-09T06:48:29.641Z,8.73
2024-05-09T06:51:01.025Z,8.80
2024-05-09T06:53:32.384Z,9.15
2024-05-09T06:56:00.003Z,6.25
2024-05-09T06:58:30.725Z,8.93
2024-05-09T07:00:58.384Z,6.15
2024-05-09T07:03:29.208Z,9.70
2024-05-09T07:05:59.680Z,10.00
2024-05-09T07:08:30.697Z,5.75
2024-05-09T07:13:29.404Z,6.35
2024-05-09T07:16:00.137Z,7.53
2024-05-09T07:18:33.281Z,5.13
2024-05-09T07:21:04.070Z,6.28
2024-05-09T07:23:35.171Z,5.18
2024-05-09T07:26:02.914Z,5.38
2024-05-09T07:28:33.867Z,5.70
2024-05-09T07:31:01.687Z,5.18
2024-05-09T07:33:32.998Z,5.22
2024-05-09T07:36:03.612Z,5.55
2024-05-09T07:38:36.609Z,4.35
2024-05-09T07:41:04.447Z,5.68
2024-05-09T07:43:35.086Z,4.18
2024-05-09T07:46:51.839Z,4.55
2024-05-09T07:54:01.407Z,5.47
2024-05-09T07:56:31.743Z,4.70
2024-05-09T07:59:02.902Z,5.65
2024-05-09T08:01:30.560Z,4.30
2024-05-09T08:04:01.613Z,2.78
2024-05-09T08:06:32.676Z,3.85
2024-05-09T08:09:08.002Z,3.03
2024-05-09T08:11:38.825Z,4.00
2024-05-09T08:14:09.514Z,7.38
2024-05-09T08:16:37.033Z,4.57
2024-05-09T08:19:07.752Z,7.07
2024-05-09T08:21:38.091Z,4.72
2024-05-09T08:24:10.768Z,4.85
2024-05-09T08:26:38.945Z,6.00
2024-05-09T08:29:10.113Z,4.85
2024-05-09T08:31:38.253Z,4.70
2024-05-09T08:34:09.180Z,4.28
2024-05-09T08:36:41.037Z,4.97
2024-05-09T08:39:11.830Z,5.35
2024-05-09T08:41:42.346Z,4.38
2024-05-09T08:44:13.794Z,4.05
2024-05-09T08:46:42.218Z,3.75
2024-05-09T08:49:13.484Z,4.43
2024-05-09T08:51:43.959Z,5.15
2024-05-09T08:54:14.963Z,8.55
2024-05-09T08:56:46.378Z,4.82
2024-05-09T08:59:20.949Z,6.32
2024-05-09T09:01:49.137Z,5.78
2024-05-09T09:04:20.369Z,8.17
2024-05-09T09:06:53.252Z,6.57
2024-05-09T09:09:25.721Z,5.68
2024-05-09T09:11:53.834Z,5.40
2024-05-09T09:14:24.419Z,6.05
2024-05-09T09:16:52.207Z,4.75
2024-05-09T09:19:26.103Z,5.45
2024-05-09T09:21:57.242Z,4.13
2024-05-09T09:24:28.638Z,5.28
2024-05-09T09:26:57.457Z,4.75
2024-05-09T09:29:28.198Z,4.88
2024-05-09T09:31:59.341Z,7.38
2024-05-09T09:34:31.701Z,6.10
2024-05-09T09:37:05.777Z,5.85
2024-05-09T09:39:38.146Z,8.70
2024-05-09T09:42:06.759Z,7.72
2024-05-09T09:44:41.942Z,4.65
2024-05-09T09:47:10.331Z,4.38
2024-05-09T09:49:41.573Z,6.22
2024-05-09T09:52:13.379Z,3.60
2024-05-09T09:54:44.982Z,3.50
2024-05-09T09:57:12.783Z,3.92
2024-05-09T09:59:46.592Z,4.43
2024-05-09T10:02:14.720Z,4.18
2024-05-09T10:04:45.859Z,4.68
2024-05-09T10:07:17.714Z,3.95
2024-05-09T10:09:48.578Z,5.07
2024-05-09T10:12:16.583Z,7.25
2024-05-09T10:14:51.648Z,4.15
2024-05-09T10:17:19.387Z,4.05
2024-05-09T10:19:50.585Z,3.28
2024-05-09T10:22:29.459Z,5.05
2024-05-09T10:25:07.855Z,3.87
2024-05-09T10:27:35.834Z,5.60
2024-05-09T10:30:14.361Z,4.68
2024-05-09T10:32:45.591Z,5.30
2024-05-09T10:35:19.520Z,3.75
2024-05-09T10:37:51.379Z,3.42
2024-05-09T10:40:26.637Z,4.13
2024-05-09T10:45:32.944Z,6.43
2024-05-09T10:48:01.158Z,5.80
2024-05-09T10:50:34.441Z,5.20
2024-05-09T10:53:05.858Z,5.25
2024-05-09T10:55:37.012Z,4.57
2024-05-09T10:58:05.102Z,3.08
2024-05-09T11:00:36.969Z,4.45
2024-05-09T11:03:05.328Z,3.97
2024-05-09T11:05:36.546Z,3.13
2024-05-09T11:08:07.526Z,6.65
2024-05-09T11:10:39.374Z,6.28
2024-05-09T11:13:07.022Z,4.35
2024-05-09T11:15:42.189Z,4.53
2024-05-09T11:18:24.440Z,5.05
2024-05-09T11:20:57.155Z,3.63
2024-05-09T11:23:30.679Z,5.18
2024-05-09T11:26:02.217Z,5.47
2024-05-09T11:28:31.549Z,4.70
2024-05-09T11:31:10.384Z,4.63
2024-05-09T11:33:39.693Z,3.88
2024-05-09T11:36:11.254Z,5.90
2024-05-09T11:38:41.539Z,3.60
2024-05-09T11:41:20.155Z,5.13
2024-05-09T11:43:47.710Z,5.35
2024-05-09T11:46:18.422Z,6.78
2024-05-09T11:48:46.334Z,6.10
2024-05-09T11:51:17.111Z,4.55
2024-05-09T11:53:47.331Z,5.10
2024-05-09T11:56:18.547Z,3.15
2024-05-09T11:58:46.581Z,4.60
2024-05-09T12:01:20.316Z,4.35
2024-05-09T12:03:49.717Z,3.95
2024-05-09T12:06:20.791Z,5.60
2024-05-09T12:08:51.201Z,5.30
2024-05-09T12:11:22.437Z,6.22
2024-05-09T12:16:20.694Z,7.22
2024-05-09T12:18:48.463Z,5.82
2024-05-09T12:21:21.831Z,3.83
2024-05-09T12:23:52.517Z,4.28
2024-05-09T12:26:23.144Z,5.13
2024-05-09T12:28:51.522Z,3.13
2024-05-09T12:31:22.250Z,3.92
2024-05-09T12:33:50.068Z,7.30
2024-05-09T12:36:21.649Z,8.15
2024-05-09T12:38:52.331Z,4.35
2024-05-09T12:41:23.002Z,3.63
2024-05-09T12:43:50.834Z,3.20
2024-05-09T12:46:23.627Z,4.30
2024-05-09T12:48:52.345Z,4.50
2024-05-09T12:51:23.394Z,4.75
2024-05-09T12:53:54.162Z,4.07
2024-05-09T12:56:25.433Z,4.43
2024-05-09T12:58:53.372Z,2.95
2024-05-09T13:01:24.376Z,3.67
2024-05-09T13:03:52.287Z,3.90
2024-05-09T13:06:23.387Z,7.05
2024-05-09T13:08:53.948Z,2.13
2024-05-09T13:11:24.536Z,3.33
2024-05-09T13:13:52.258Z,3.75
2024-05-09T13:16:23.188Z,3.63
2024-05-09T13:18:51.082Z,3.35
2024-05-09T13:21:22.170Z,5.82
2024-05-09T13:23:50.046Z,5.80
2024-05-09T13:26:23.348Z,3.90
2024-05-09T13:28:51.422Z,6.20
2024-05-09T13:31:22.349Z,3.92
2024-05-09T13:36:21.278Z,5.82
2024-05-09T13:38:49.459Z,4.05
2024-05-09T13:41:22.789Z,3.30
2024-05-09T13:43:50.884Z,4.32
2024-05-09T13:46:24.779Z,3.17
2024-05-09T13:48:52.920Z,3.55
2024-05-09T13:51:23.883Z,3.88
2024-05-09T13:53:51.821Z,4.50
2024-05-09T13:56:25.138Z,7.10
2024-05-09T13:58:55.101Z,3.70
2024-05-09T14:01:26.009Z,3.50
2024-05-09T14:03:54.038Z,5.05
2024-05-09T14:06:25.174Z,4.55
2024-05-09T14:08:52.841Z,4.63
2024-05-09T14:11:26.131Z,6.97
2024-05-09T14:13:53.866Z,4.40
2024-05-09T14:16:24.605Z,3.55
2024-05-09T14:18:52.274Z,4.50
2024-05-09T14:21:23.348Z,3.22
2024-05-09T14:23:51.257Z,6.05
2024-05-09T14:26:21.824Z,3.38
2024-05-09T14:28:52.076Z,3.67
2024-05-09T14:31:23.636Z,6.60
2024-05-09T14:33:51.944Z,2.72
2024-05-09T14:36:22.913Z,4.55
2024-05-09T14:38:50.805Z,4.28
2024-05-09T14:41:21.791Z,2.90
2024-05-09T14:43:52.486Z,4.10
2024-05-09T14:46:23.147Z,6.50
2024-05-09T14:48:51.799Z,4.18
2024-05-09T14:51:22.695Z,4.75
2024-05-09T14:53:50.573Z,4.40
2024-05-09T14:56:21.471Z,3.70
2024-05-09T14:58:51.640Z,4.32
2024-05-09T15:01:24.334Z,4.22
2024-05-09T15:03:52.136Z,3.75
2024-05-09T15:06:23.037Z,5.20
2024-05-09T15:08:54.944Z,3.58
2024-05-09T15:11:26.093Z,5.32
2024-05-09T15:13:56.446Z,2.67
2024-05-09T15:16:27.158Z,4.47
2024-05-09T15:18:55.111Z,3.45
2024-05-09T15:21:26.102Z,4.07
2024-05-09T15:23:53.819Z,7.13
2024-05-09T15:26:25.067Z,5.22
2024-05-09T15:28:52.705Z,3.22
2024-05-09T15:31:26.292Z,4.57
2024-05-09T15:33:54.164Z,3.67
2024-05-09T15:36:25.290Z,3.95
2024-05-09T15:38:52.899Z,3.17
2024-05-09T15:41:23.735Z,5.28
2024-05-09T15:43:51.365Z,5.25
2024-05-09T15:46:22.340Z,4.28
2024-05-09T15:48:53.013Z,6.03
2024-05-09T15:51:24.006Z,5.07
2024-05-09T15:53:51.627Z,5.22
2024-05-09T15:56:41.108Z,4.60
2024-05-09T15:59:11.906Z,2.25
2024-05-09T16:01:42.899Z,5.03
2024-05-09T16:04:15.587Z,6.60
2024-05-09T16:06:48.232Z,3.15
2024-05-09T16:09:16.169Z,3.47
2024-05-09T16:11:47.149Z,5.45
2024-05-09T16:14:16.307Z,3.75
2024-05-09T16:16:47.664Z,4.15
2024-05-09T16:19:18.032Z,3.45
2024-05-09T16:21:48.804Z,4.90
2024-05-09T16:24:16.734Z,3.60
2024-05-09T16:26:47.272Z,4.60
2024-05-09T16:29:16.123Z,3.35
2024-05-09T16:31:47.905Z,4.30
2024-05-09T16:34:23.162Z,5.30
2024-05-09T16:36:52.434Z,2.53
2024-05-09T16:39:23.206Z,4.25
2024-05-09T16:41:51.426Z,4.28
2024-05-09T16:44:21.904Z,5.80
2024-05-09T16:46:50.002Z,3.67
2024-05-09T16:49:24.202Z,5.25
2024-05-09T16:51:52.620Z,4.80
2024-05-09T16:54:22.841Z,4.80
2024-05-09T16:56:51.112Z,3.03
2024-05-09T16:59:22.675Z,2.45
2024-05-09T17:01:51.857Z,6.40
2024-05-09T17:04:25.378Z,3.67
2024-05-09T17:06:53.537Z,3.65
2024-05-09T17:09:25.022Z,3.25
2024-05-09T17:11:53.061Z,3.28
2024-05-09T17:14:23.415Z,4.45
2024-05-09T17:16:54.751Z,6.00
2024-05-09T17:19:27.969Z,3.97
2024-05-09T17:21:56.136Z,3.40
2024-05-09T17:24:26.663Z,14.30
2024-05-09T17:26:54.994Z,15.05
2024-05-09T17:29:25.317Z,6.30
2024-05-09T17:31:53.290Z,6.93
2024-05-09T17:34:23.685Z,5.95
2024-05-09T17:36:54.753Z,5.80
2024-05-09T17:39:26.717Z,4.70
2024-05-09T17:41:54.779Z,5.38
2024-05-09T17:44:24.924Z,8.63
2024-05-09T17:46:53.110Z,2.90
2024-05-09T17:49:23.521Z,7.22
2024-05-09T17:51:54.805Z,4.45
2024-05-09T17:54:25.061Z,6.45
2024-05-09T17:56:53.107Z,4.78
2024-05-09T17:59:23.599Z,5.50
2024-05-09T18:01:51.627Z,7.55
2024-05-09T18:04:22.638Z,4.15
2024-05-09T18:06:50.835Z,6.80
2024-05-09T18:09:23.818Z,5.15
2024-05-09T18:11:51.865Z,6.18
2024-05-09T18:14:22.254Z,4.75
2024-05-09T18:16:51.116Z,8.13
2024-05-09T18:19:22.031Z,3.65
2024-05-09T18:24:24.984Z,4.53
2024-05-09T18:26:53.006Z,5.03
2024-05-09T18:29:23.867Z,7.53
2024-05-09T18:34:21.970Z,4.82
2024-05-09T18:36:50.780Z,5.13
2024-05-09T18:39:24.099Z,4.38
2024-05-09T18:41:52.244Z,6.40
2024-05-09T18:44:22.569Z,5.13
2024-05-09T18:46:51.423Z,3.72
2024-05-09T18:49:22.027Z,6.72
2024-05-09T18:51:50.153Z,4.35
2024-05-09T18:54:20.457Z,6.75
2024-05-09T18:56:51.495Z,6.93
2024-05-09T18:59:22.265Z,7.45
2024-05-09T19:01:50.514Z,6.53
2024-05-09T19:04:22.405Z,6.15
2024-05-09T19:06:50.979Z,5.32
2024-05-09T19:09:21.719Z,6.05
2024-05-09T19:14:23.221Z,4.00
2024-05-09T19:16:51.562Z,6.93
2024-05-09T19:19:22.352Z,7.85
2024-05-09T19:21:51.006Z,4.80
2024-05-09T19:24:22.550Z,4.90
2024-05-09T19:26:53.383Z,4.75
2024-05-09T19:29:23.982Z,4.47
2024-05-09T19:31:52.232Z,7.43
2024-05-09T19:34:22.882Z,4.95
2024-05-09T19:36:51.583Z,7.47
2024-05-09T19:39:22.220Z,4.95
2024-05-09T19:41:55.912Z,6.07
2024-05-09T19:44:23.578Z,7.60
2024-05-09T19:46:54.324Z,4.75
2024-05-09T19:49:22.489Z,4.78
2024-05-09T19:51:53.354Z,6.35
2024-05-09T19:54:21.071Z,5.82
2024-05-09T19:56:52.085Z,9.15
2024-05-09T19:59:22.689Z,5.97
2024-05-09T20:01:53.414Z,7.28
2024-05-09T20:04:21.715Z,6.72
2024-05-09T20:06:53.736Z,5.28
2024-05-09T20:09:21.474Z,4.65
2024-05-09T20:11:53.278Z,7.45
2024-05-09T20:14:23.966Z,8.27
2024-05-09T20:16:55.046Z,6.68
2024-05-09T20:19:22.872Z,5.70
2024-05-09T20:21:54.477Z,6.88
2024-05-09T20:24:22.781Z,5.93
2024-05-09T20:26:53.671Z,8.05
2024-05-09T20:29:24.202Z,5.30
2024-05-09T20:31:55.125Z,5.22
2024-05-09T20:34:23.374Z,6.70
2024-05-09T20:36:54.619Z,4.28
2024-05-09T20:39:25.561Z,6.18
2024-05-09T20:41:56.451Z,6.30
2024-05-09T20:44:27.293Z,4.22
2024-05-09T20:46:58.469Z,4.95
2024-05-09T20:49:26.223Z,4.80
2024-05-09T20:51:58.291Z,5.38
2024-05-09T20:54:26.104Z,7.63
2024-05-09T20:56:57.249Z,6.90
2024-05-09T20:59:27.785Z,6.25
2024-05-09T21:01:59.035Z,12.10
2024-05-09T21:04:27.443Z,23.75
2024-05-09T21:06:58.732Z,35.40
2024-05-09T21:09:26.457Z,27.42
2024-05-09T21:11:57.411Z,26.05
2024-05-09T21:14:30.571Z,37.35
2024-05-09T21:16:59.221Z,32.05
2024-05-09T21:19:29.817Z,35.95
2024-05-09T21:21:58.224Z,39.97
2024-05-09T21:24:30.585Z,32.83
2024-05-09T21:26:58.736Z,43.35
2024-05-09T21:29:31.533Z,40.00
2024-05-09T21:31:59.640Z,27.10
2024-05-09T21:34:30.194Z,21.15
2024-05-09T21:36:58.684Z,16.05
2024-05-09T21:39:30.368Z,13.77
2024-05-09T21:42:02.018Z,12.88
2024-05-09T21:44:35.166Z,10.25
2024-05-09T21:47:03.398Z,11.30
2024-05-09T21:49:34.373Z,12.13
2024-05-09T21:52:02.949Z,13.73
2024-05-09T21:54:33.078Z,11.35
2024-05-09T21:57:01.229Z,8.80
2024-05-09T21:59:34.456Z,9.35
2024-05-09T22:02:02.741Z,12.82
2024-05-09T22:04:33.591Z,11.20
2024-05-09T22:07:01.658Z,10.65
2024-05-09T22:09:31.920Z,12.75
2024-05-09T22:11:59.915Z,11.93
2024-05-09T22:14:30.240Z,11.68
2024-05-09T22:17:00.704Z,7.40
2024-05-09T22:19:32.075Z,11.20
2024-05-09T22:22:00.313Z,9.82
2024-05-09T22:24:30.530Z,9.73
2024-05-09T22:26:59.066Z,12.77
2024-05-09T22:29:29.554Z,9.73
2024-05-09T22:31:57.695Z,12.18
2024-05-09T22:34:31.335Z,10.45
2024-05-09T22:37:01.396Z,13.07
2024-05-09T22:39:32.415Z,11.35
2024-05-09T22:42:00.415Z,11.27
2024-05-09T22:44:30.844Z,11.45
2024-05-09T22:46:58.827Z,17.35
2024-05-09T22:49:32.341Z,12.80
2024-05-09T22:52:00.655Z,11.10
2024-05-09T22:54:30.993Z,12.25
2024-05-09T22:56:58.987Z,11.05
2024-05-09T22:59:29.595Z,13.65
2024-05-09T23:01:57.692Z,9.30
2024-05-09T23:04:27.976Z,10.40
2024-05-09T23:06:59.215Z,9.40
2024-05-09T23:09:29.691Z,8.80
2024-05-09T23:11:57.735Z,8.80
2024-05-09T23:14:28.943Z,8.95
2024-05-09T23:16:56.923Z,7.72
2024-05-09T23:19:27.687Z,7.97
2024-05-09T23:21:58.699Z,10.75
2024-05-09T23:24:29.713Z,10.77
2024-05-09T23:26:58.372Z,10.18
2024-05-09T23:29:28.759Z,9.95
2024-05-09T23:31:57.303Z,7.15
2024-05-09T23:34:27.753Z,9.93
2024-05-09T23:36:55.818Z,9.57
2024-05-09T23:39:29.270Z,10.70
2024-05-09T23:42:00.514Z,10.88
2024-05-09T23:44:30.707Z,8.55
2024-05-09T23:46:58.720Z,9.60
2024-05-09T23:49:29.200Z,8.80
2024-05-09T23:51:57.170Z,10.15
2024-05-09T23:54:30.033Z,10.55
2024-05-09T23:56:58.075Z,12.73
2024-05-09T23:59:28.441Z,9.50
